Fort Lauderdale, FL (33311)

4:19 PM EDT on September 01, 2015 (GMT -0400)
Mills Pond Park Area | | Change Station
CLOSE
Current Station
Personal Weather Station
Location: Wilton Manors, FL
Elevation: 10 ft
Nearby Weather Stations

Elev 10 ft 26.16 °N, 80.16 °W | Updated 47 seconds ago

Partly Cloudy
Partly Cloudy
92.5 °F
Feels Like 105 °F
N
4.3
Wind Variable Wind from ESE
Gusts 7.4 mph

Today
High -- | Low -- °F
--% Chance of Precip.
Yesterday
High -- | Low -- °F
Precip. -- in
7:00 AM 7:40 PM
Waning Gibbous, 86% visible
Pressure 30.04 in
Visibility 10.0 miles
Clouds Scattered Clouds 3500 ft
Heat Index 105 °F
Dew Point 75 °F
Humidity 58%
Rainfall 0.00 in
Snow Depth Not available.
UV 7 out of 12
Pollen 4.40 out of 12
Air Quality Not available.
Flu Activity Not available.
METAR KFXE 011953Z 13009KT 10SM SCT035 33/23 A3004 RMK AO2 SLP173 T03280233
Pressure 30.04 in
Visibility 10.0 miles
Clouds Scattered Clouds 3500 ft
Heat Index 105 °F
Dew Point 75 °F
Humidity 58%
Rainfall 0.00 in
Snow Depth Not available.
UV 7 out of 12
Pollen 4.40 out of 12
Air Quality Not available.
Flu Activity Not available.
METAR KFXE 011953Z 13009KT 10SM SCT035 33/23 A3004 RMK AO2 SLP173 T03280233

10-Day Weather Forecast

×

Almanac

Astronomy

Sep. 01, 2015 Rise Set
Actual Time
Civil Twilight
Nautical Twilight
Astronomical Twilight
Moon
Length of Visible Light
Length of Day
Tomorrow will be .
, % of the Moon is Illuminated

Today's Extremes

State Highs State Lows

Community

WunderPhotos

Upload Photos

1,851,605 photos uploaded!

WunderBlogs® & News

Nearby

Air Quality

  Air Quality AQ Index Pollutant
Not available.

Snow Depth

Station Depth Elevation

Earthquake Activity

City Distance Mag. Time & Date
Minimum magnitude displayed is 2.5.

Coastal Water Temperatures

Place Temperature

Stations

Nearby Weather Stations

Station Location Temp. Windchill Dew Point Humidity Wind Precip. Elev Updated Type